This demonstration page uses our WeatherBlox Daily Observations layout. Learn more.

41.55636, -103.73856

Hourly Observations for March 19, 2019

Temp ( °F °C ) Dew Point ( °F °C ) Humidity (%) Winds ( mph kmh ) Pressure ( in mb ) Visibility ( mi km ) Precip ( " mm )
12:53 am 00:53 Clear 30 -1.1 30 -1.1 100 100 NW 8 13 30.21 1023 10 16.09344 0 0
1:53 am 01:53 Mostly Clear 29 -1.7 28 -2.2 96 96 NW 6 9 30.21 1023 10 16.09344 0 0
2:53 am 02:53 Mostly Cloudy 30 -1.1 29 -1.7 96 96 NW 7 11 30.21 1023 10 16.09344 0 0
3:53 am 03:53 Cloudy 32 0 31 -0.6 96 96 WNW 9 15 30.18 1022 10 16.09344 0 0
4:53 am 04:53 Cloudy 32 0 31 -0.6 96 96 WNW 10 17 30.18 1022 10 16.09344 0 0
5:53 am 05:53 Partly Cloudy 30 -1.1 29 -1.7 96 96 WNW 8 13 30.21 1023 10 16.09344 0 0
6:53 am 06:53 Clear 29 -1.7 27 -2.8 92 92 WNW 8 13 30.24 1024 10 16.09344 0 0
7:53 am 07:53 Mostly Sunny 32 0 28 -2.2 85 85 WNW 12 19 30.24 1024 10 16.09344 0 0
8:53 am 08:53 Sunny 36 2.2 30 -1.1 79 79 NW 15 24 30.27 1025 10 16.09344 0 0
9:53 am 09:53 Sunny 38 3.3 30 -1.1 73 73 NW 15 24 30.3 1026 10 16.09344 0 0
10:53 am 10:53 Cloudy 40 4.4 31 -0.6 70 70 N 9 15 30.3 1026 10 16.09344 0 0
11:53 am 11:53 Mostly Cloudy 44 6.7 28 -2.2 53 53 NNW 18 30 30.27 1025 10 16.09344 0 0
12:53 pm 12:53 Cloudy 43 6.1 25 -3.9 49 49 NNW 16 26 30.3 1026 10 16.09344 0 0
1:53 pm 13:53 Cloudy 42 5.6 26 -3.3 53 53 NNW 14 22 30.27 1025 10 16.09344 0 0
2:53 pm 14:53 Cloudy 44 6.7 27 -2.8 51 51 NNW 18 30 30.27 1025 10 16.09344 0 0
3:53 pm 15:53 Mostly Cloudy 43 6.1 26 -3.3 51 51 NNW 15 24 30.27 1025 10 16.09344 0 0
4:53 pm 16:53 Mostly Cloudy 45 7.2 26 -3.3 48 48 N 14 22 30.27 1025 10 16.09344 0 0
5:53 pm 17:53 Partly Cloudy 44 6.7 24 -4.4 45 45 N 12 19 30.27 1025 10 16.09344 0 0
6:53 pm 18:53 Partly Cloudy 38 3.3 26 -3.3 62 62 N 5 7 30.3 1026 10 16.09344 0 0
7:53 pm 19:53 Clear 35 1.7 25 -3.9 67 67 NNW 5 7 30.3 1026 10 16.09344 0 0
8:53 pm 20:53 Clear 30 -1.1 26 -3.3 85 85 Calm 30.33 1027 10 16.09344 0 0
9:53 pm 21:53 Clear 31 -0.6 26 -3.3 82 82 Calm 30.3 1026 10 16.09344 0 0
10:53 pm 22:53 Clear 30 -1.1 25 -3.9 82 82 NW 3 6 30.3 1026 10 16.09344 0 0
11:53 pm 23:53 Clear 29 -1.7 26 -3.3 89 89 W 5 7 30.3 1026 10 16.09344 0 0

Powered by AerisWeather